Time;durP1;ratioP1;P1;durP2;ratioP2;P2;SDS_P1;SDS_P2;PMS_P1;PMS_P2;Temp;Humidity;BMP_temperature;BMP_pressure;BME280_temperature;BME280_humidity;BME280_pressure;Samples;Min_cycle;Max_cycle;Signal;HPM_P1;HPM_P2
2022/06/18 00:00:22;;;;;;;;;13.80;12.60;;;;;-143.57;100.00;65101.44;5096850;27;45296;-47
2022/06/18 00:02:48;;;;;;;;;13.80;12.20;;;;;-143.57;100.00;65101.44;5096948;27;45378;-47
2022/06/18 00:05:16;;;;;;;;;13.00;11.00;;;;;-143.57;100.00;65101.44;5098093;27;45370;-46
2022/06/18 00:07:54;;;;;;;;;14.40;12.40;;;;;-143.57;100.00;65101.44;5100352;27;45551;-45
2022/06/18 00:10:27;;;;;;;;;13.00;11.00;;;;;-143.57;100.00;65101.44;5100642;27;45356;-45
2022/06/18 00:15:39;;;;;;;;;11.20;11.20;;;;;-143.57;100.00;65101.44;5100698;27;45342;-49
2022/06/18 00:18:12;;;;;;;;;11.80;11.80;;;;;-143.57;100.00;65101.44;5100353;27;46234;-49
2022/06/18 00:20:39;;;;;;;;;12.80;11.00;;;;;-143.57;100.00;65101.44;5099758;27;45456;-50
2022/06/18 00:23:14;;;;;;;;;13.00;11.00;;;;;-143.57;100.00;65101.44;5080162;27;45809;-49
2022/06/18 00:25:43;;;;;;;;;10.00;10.00;;;;;-143.57;100.00;65101.44;5080084;27;45371;-46
2022/06/18 00:28:30;;;;;;;;;11.00;11.00;;;;;-143.57;100.00;65101.44;5079752;27;46504;-47
2022/06/18 00:30:55;;;;;;;;;12.60;12.60;;;;;-143.57;100.00;65101.44;5079704;28;45395;-47
2022/06/18 00:33:23;;;;;;;;;15.00;14.25;;;;;-143.57;100.00;65101.44;5079881;27;45843;-48
2022/06/18 00:35:50;;;;;;;;;13.60;13.00;;;;;-143.57;100.00;65101.44;5079919;28;45347;-44
2022/06/18 00:38:26;;;;;;;;;20.80;18.60;;;;;-143.57;100.00;65101.44;5079595;27;45425;-45
2022/06/18 00:40:53;;;;;;;;;20.00;17.60;;;;;-143.57;100.00;65101.44;5079400;28;45292;-47
2022/06/18 00:43:39;;;;;;;;;23.60;19.20;;;;;-143.57;100.00;65101.44;5079729;27;45739;-49
2022/06/18 00:46:32;;;;;;;;;19.25;17.25;;;;;-143.57;100.00;65101.44;5079877;28;45355;-47
2022/06/18 00:49:06;;;;;;;;;17.60;16.00;;;;;-143.57;100.00;65101.44;5079369;28;45278;-47
2022/06/18 00:51:40;;;;;;;;;16.40;15.40;;;;;-143.57;100.00;65101.44;5079509;27;45818;-48
2022/06/18 00:54:17;;;;;;;;;17.20;16.00;;;;;-143.57;100.00;65101.44;5079431;27;45358;-47
2022/06/18 00:56:51;;;;;;;;;14.20;13.20;;;;;-143.57;100.00;65101.44;5079495;28;45164;-48
2022/06/18 00:59:23;;;;;;;;;15.75;14.50;;;;;-143.57;100.00;65101.44;5078927;27;45327;-47
2022/06/18 01:01:50;;;;;;;;;14.80;13.00;;;;;-143.57;100.00;65101.44;5079147;27;45451;-46
2022/06/18 01:04:28;;;;;;;;;11.60;11.40;;;;;-143.57;100.00;65101.44;5079116;27;45228;-47
2022/06/18 01:07:04;;;;;;;;;15.00;14.75;;;;;-143.57;100.00;65101.44;5079593;28;45395;-48
2022/06/18 01:09:31;;;;;;;;;11.40;11.00;;;;;-143.57;100.00;65101.44;5079055;27;47158;-48
2022/06/18 01:11:58;;;;;;;;;13.20;11.00;;;;;-143.57;100.00;65101.44;5079101;27;45387;-46
2022/06/18 01:14:26;;;;;;;;;14.60;10.80;;;;;-143.57;100.00;65101.44;5079078;27;45409;-49
2022/06/18 01:16:54;;;;;;;;;10.80;10.80;;;;;-143.57;100.00;65101.44;5078616;28;45146;-48
2022/06/18 01:19:37;;;;;;;;;12.20;11.00;;;;;-143.57;100.00;65101.44;5078861;27;46094;-48
2022/06/18 01:22:34;;;;;;;;;10.00;10.00;;;;;-143.57;100.00;65101.44;5078841;28;45315;-51
2022/06/18 01:25:00;;;;;;;;;9.80;9.80;;;;;-143.57;100.00;65101.44;5078967;28;45383;-46
2022/06/18 01:27:27;;;;;;;;;9.75;9.75;;;;;-143.57;100.00;65101.44;5061255;28;45309;-48
2022/06/18 01:29:53;;;;;;;;;10.40;10.40;;;;;-143.57;100.00;65101.44;5078855;28;47299;-48
2022/06/18 01:32:20;;;;;;;;;10.40;9.40;;;;;-143.57;100.00;65101.44;5078618;28;45267;-45
2022/06/18 01:34:46;;;;;;;;;12.20;11.40;;;;;-143.57;100.00;65101.44;5078989;27;45418;-47
2022/06/18 01:37:12;;;;;;;;;9.20;9.20;;;;;-143.57;100.00;65101.44;5079080;27;45277;-47
2022/06/18 01:39:42;;;;;;;;;12.50;11.00;;;;;-143.57;100.00;65101.44;5078498;27;45409;-46
2022/06/18 01:42:16;;;;;;;;;10.40;8.80;;;;;-143.57;100.00;65101.44;5078594;27;45456;-49
2022/06/18 01:44:56;;;;;;;;;11.40;9.20;;;;;-143.57;100.00;65101.44;5078220;27;45319;-47
2022/06/18 01:47:29;;;;;;;;;10.00;10.00;;;;;-143.57;100.00;65101.44;5078749;27;45237;-48
2022/06/18 01:50:32;;;;;;;;;11.40;10.40;;;;;-143.57;100.00;65101.44;5078333;28;46389;-48
2022/06/18 01:53:16;;;;;;;;;11.20;10.80;;;;;-143.57;100.00;65101.44;5015660;28;45433;-46
2022/06/18 01:55:46;;;;;;;;;10.80;8.60;;;;;-143.57;100.00;65101.44;5015771;28;45375;-47
2022/06/18 01:58:21;;;;;;;;;13.00;10.20;;;;;-143.57;100.00;65101.44;5015880;28;45596;-48
2022/06/18 02:00:51;;;;;;;;;11.40;11.00;;;;;-143.57;100.00;65101.44;5015722;28;45356;-49
2022/06/18 02:03:17;;;;;;;;;9.20;9.20;;;;;-143.57;100.00;65101.44;5015510;28;45448;-49
2022/06/18 02:05:42;;;;;;;;;16.75;12.50;;;;;-143.57;100.00;65101.44;5015883;28;45509;-49
2022/06/18 02:08:10;;;;;;;;;10.75;10.50;;;;;-143.57;100.00;65101.44;5015863;28;45452;-48
2022/06/18 02:10:45;;;;;;;;;10.80;9.20;;;;;-143.57;100.00;65101.44;5015274;28;45389;-50
2022/06/18 02:13:12;;;;;;;;;13.20;12.60;;;;;-143.57;100.00;65101.44;5015600;28;45229;-49
2022/06/18 02:15:42;;;;;;;;;13.20;12.00;;;;;-143.57;100.00;65101.44;5015502;28;45559;-46
2022/06/18 02:18:10;;;;;;;;;12.50;10.25;;;;;-143.57;100.00;65101.44;5015530;28;45328;-48
2022/06/18 02:20:42;;;;;;;;;11.00;10.00;;;;;-143.57;100.00;65101.44;5015214;28;46287;-45
2022/06/18 02:23:07;;;;;;;;;10.20;10.20;;;;;-143.57;100.00;65101.44;5015500;28;45467;-45
2022/06/18 02:25:33;;;;;;;;;11.75;10.75;;;;;-143.57;100.00;65101.44;5015580;28;45515;-45
2022/06/18 02:28:02;;;;;;;;;12.00;11.00;;;;;-143.57;100.00;65101.44;5015991;28;45341;-47
2022/06/18 02:30:34;;;;;;;;;11.80;9.60;;;;;-143.57;100.00;65101.44;5046770;28;46166;-47
2022/06/18 02:33:14;;;;;;;;;15.60;12.00;;;;;-143.57;100.00;65101.44;5077920;28;45370;-48
2022/06/18 02:35:39;;;;;;;;;11.80;10.40;;;;;-143.57;100.00;65101.44;5059565;28;45362;-47
2022/06/18 02:38:31;;;;;;;;;18.50;15.50;;;;;-143.57;100.00;65101.44;5078245;27;45555;-47
2022/06/18 02:40:57;;;;;;;;;14.60;12.80;;;;;-143.57;100.00;65101.44;5074600;28;46588;-49
2022/06/18 02:43:22;;;;;;;;;13.50;13.50;;;;;-143.57;100.00;65101.44;5093705;27;45474;-47
2022/06/18 02:45:52;;;;;;;;;13.00;11.00;;;;;-143.57;100.00;65101.44;5077778;28;45295;-49
2022/06/18 02:48:18;;;;;;;;;11.00;11.00;;;;;-143.57;100.00;65101.44;5078058;28;45319;-47
2022/06/18 02:50:45;;;;;;;;;16.75;14.50;;;;;-143.57;100.00;65101.44;5077442;27;47179;-44
2022/06/18 02:53:12;;;;;;;;;14.40;13.00;;;;;-143.57;100.00;65101.44;5077772;27;45372;-47
2022/06/18 02:55:45;;;;;;;;;16.00;13.40;;;;;-143.57;100.00;65101.44;5077797;27;45276;-45
2022/06/18 02:58:20;;;;;;;;;13.25;13.25;;;;;-143.57;100.00;65101.44;5077814;28;45372;-47
2022/06/18 03:00:55;;;;;;;;;10.50;10.50;;;;;-143.57;100.00;65101.44;5077408;27;46394;-48
2022/06/18 03:03:25;;;;;;;;;10.40;10.40;;;;;-143.57;100.00;65101.44;5077585;28;45272;-48
2022/06/18 03:05:54;;;;;;;;;11.00;11.00;;;;;-143.57;100.00;65101.44;5077622;27;45441;-45
2022/06/18 03:08:21;;;;;;;;;16.00;13.50;;;;;-143.57;100.00;65101.44;5077794;27;45316;-47
2022/06/18 03:13:32;;;;;;;;;11.00;11.00;;;;;-143.57;100.00;65101.44;5077593;27;45557;-45
2022/06/18 03:15:57;;;;;;;;;14.20;13.00;;;;;-143.57;100.00;65101.44;5077115;27;45355;-45
2022/06/18 03:18:26;;;;;;;;;13.50;11.75;;;;;-143.57;100.00;65101.44;5077729;27;45465;-47
2022/06/18 03:21:27;;;;;;;;;13.25;12.25;;;;;-143.57;100.00;65101.44;5058667;28;46467;-47
2022/06/18 03:23:53;;;;;;;;;14.60;12.40;;;;;-143.57;100.00;65101.44;5014666;28;45443;-50
2022/06/18 03:26:19;;;;;;;;;14.40;12.80;;;;;-143.57;100.00;65101.44;5014229;28;45605;-47
2022/06/18 03:28:45;;;;;;;;;12.25;12.25;;;;;-143.57;100.00;65101.44;5015081;28;45500;-45
2022/06/18 03:31:11;;;;;;;;;11.00;10.00;;;;;-143.57;100.00;65101.44;5014459;28;45490;-47
2022/06/18 03:33:37;;;;;;;;;14.80;13.80;;;;;-143.57;100.00;65101.44;5014481;28;45481;-45
2022/06/18 03:36:04;;;;;;;;;13.75;13.75;;;;;-143.57;100.00;65101.44;5014817;28;45523;-46
2022/06/18 03:38:30;;;;;;;;;10.25;10.25;;;;;-143.57;100.00;65101.44;5014743;28;45519;-48
2022/06/18 03:40:56;;;;;;;;;14.75;12.00;;;;;-143.57;100.00;65101.44;5017893;28;46079;-45
2022/06/18 03:43:24;;;;;;;;;13.75;12.75;;;;;-143.57;100.00;65101.44;5021017;28;45514;-47
2022/06/18 03:45:54;;;;;;;;;12.00;12.00;;;;;-143.57;100.00;65101.44;5020806;28;45560;-46
2022/06/18 03:48:41;;;;;;;;;11.25;9.25;;;;;-143.57;100.00;65101.44;5021330;28;45369;-46
2022/06/18 03:51:06;;;;;;;;;14.00;10.00;;;;;-143.57;100.00;65101.44;5020918;28;46251;-48
2022/06/18 03:53:32;;;;;;;;;12.00;12.00;;;;;-143.57;100.00;65101.44;5020688;28;45237;-45
2022/06/18 03:55:57;;;;;;;;;11.50;10.75;;;;;-143.57;100.00;65101.44;5020980;28;45300;-43
2022/06/18 03:58:23;;;;;;;;;12.00;12.00;;;;;-143.57;100.00;65101.44;5024050;28;45439;-44
2022/06/18 04:00:50;;;;;;;;;14.75;13.25;;;;;-143.57;100.00;65101.44;5082692;27;46129;-45
2022/06/18 04:03:16;;;;;;;;;14.00;11.60;;;;;-143.57;100.00;65101.44;5065162;28;45418;-48
2022/06/18 04:05:42;;;;;;;;;12.75;12.75;;;;;-143.57;100.00;65101.44;5083537;27;45313;-46
2022/06/18 04:08:11;;;;;;;;;14.75;13.75;;;;;-143.57;100.00;65101.44;5083619;27;45520;-44
2022/06/18 04:10:36;;;;;;;;;14.75;13.00;;;;;-143.57;100.00;65101.44;5083269;28;46081;-52
2022/06/18 04:13:02;;;;;;;;;13.00;10.75;;;;;-143.57;100.00;65101.44;5083401;27;45434;-46
2022/06/18 04:15:27;;;;;;;;;12.25;11.50;;;;;-143.57;100.00;65101.44;5083430;27;45268;-46
2022/06/18 04:17:53;;;;;;;;;16.25;14.00;;;;;-143.57;100.00;65101.44;5083631;27;45420;-44
2022/06/18 04:20:23;;;;;;;;;11.75;11.50;;;;;-143.57;100.00;65101.44;5082899;28;46164;-45
2022/06/18 04:22:49;;;;;;;;;14.40;12.00;;;;;-143.57;100.00;65101.44;5083281;28;45272;-44
2022/06/18 04:25:15;;;;;;;;;9.00;8.00;;;;;-143.57;100.00;65101.44;5083396;27;45229;-43
2022/06/18 04:27:41;;;;;;;;;16.50;14.25;;;;;-143.57;100.00;65101.44;5083482;28;45471;-47
2022/06/18 04:30:08;;;;;;;;;14.00;12.75;;;;;-143.57;100.00;65101.44;5083379;27;45268;-43
2022/06/18 04:32:35;;;;;;;;;14.40;12.20;;;;;-143.57;100.00;65101.44;5082932;28;45232;-45
2022/06/18 04:35:02;;;;;;;;;12.25;12.25;;;;;-143.57;100.00;65101.44;5083221;28;45294;-46
2022/06/18 04:37:28;;;;;;;;;14.50;13.00;;;;;-143.57;100.00;65101.44;5083252;28;45359;-51
2022/06/18 04:39:53;;;;;;;;;10.75;10.25;;;;;-143.57;100.00;65101.44;5082731;27;46091;-50
2022/06/18 04:42:18;;;;;;;;;9.75;9.75;;;;;-143.57;100.00;65101.44;5083030;28;45397;-53
2022/06/18 04:44:44;;;;;;;;;13.75;13.50;;;;;-143.57;100.00;65101.44;5082982;27;45358;-50
2022/06/18 04:47:09;;;;;;;;;12.25;12.25;;;;;-143.57;100.00;65101.44;5083258;27;45349;-49
2022/06/18 04:49:34;;;;;;;;;12.00;10.00;;;;;-143.57;100.00;65101.44;5082785;27;47280;-53
2022/06/18 04:52:00;;;;;;;;;13.50;13.50;;;;;-143.57;100.00;65101.44;5079976;28;45338;-52
2022/06/18 04:54:25;;;;;;;;;11.25;11.25;;;;;-143.57;100.00;65101.44;5079700;28;45376;-48
2022/06/18 04:56:50;;;;;;;;;13.00;13.00;;;;;-143.57;100.00;65101.44;5079497;27;45370;-44
2022/06/18 04:59:16;;;;;;;;;14.25;12.50;;;;;-143.57;100.00;65101.44;5079467;27;47020;-51
2022/06/18 05:01:42;;;;;;;;;13.50;10.25;;;;;-143.57;100.00;65101.44;5079362;27;45263;-50
2022/06/18 05:04:08;;;;;;;;;17.00;12.80;;;;;-143.57;100.00;65101.44;5079392;27;45450;-52
2022/06/18 05:06:34;;;;;;;;;14.00;12.50;;;;;-143.57;100.00;65101.44;5079697;28;45455;-52
2022/06/18 05:08:59;;;;;;;;;11.50;11.50;;;;;-143.57;100.00;65101.44;5079195;27;46401;-49
2022/06/18 05:11:25;;;;;;;;;13.00;11.50;;;;;-143.57;100.00;65101.44;5079196;27;45404;-55
2022/06/18 05:13:50;;;;;;;;;15.25;12.00;;;;;-143.57;100.00;65101.44;5079261;27;45368;-54
2022/06/18 05:16:15;;;;;;;;;10.00;10.00;;;;;-143.57;100.00;65101.44;5079375;27;45797;-51
2022/06/18 05:18:45;;;;;;;;;13.75;12.25;;;;;-143.57;100.00;65101.44;5078961;27;45518;-48
2022/06/18 05:21:10;;;;;;;;;10.60;10.40;;;;;-143.57;100.00;65101.44;5078738;28;45462;-54
2022/06/18 05:23:36;;;;;;;;;11.25;11.25;;;;;-143.57;100.00;65101.44;5079192;28;45275;-47
2022/06/18 05:26:02;;;;;;;;;7.00;5.00;;;;;-143.57;100.00;65101.44;5079483;28;45252;-45
2022/06/18 05:28:28;;;;;;;;;15.00;14.75;;;;;-143.57;100.00;65101.44;5078850;27;47435;-54
2022/06/18 05:30:54;;;;;;;;;15.25;13.75;;;;;-143.57;100.00;65101.44;5078419;27;45347;-53
2022/06/18 05:33:19;;;;;;;;;14.00;11.00;;;;;-143.57;100.00;65101.44;5078824;27;45330;-43
2022/06/18 05:35:45;;;;;;;;;11.75;11.00;;;;;-143.57;100.00;65101.44;5079185;28;45319;-52
2022/06/18 05:38:15;;;;;;;;;13.00;12.00;;;;;-143.57;100.00;65101.44;5078619;28;46072;-45
2022/06/18 05:40:41;;;;;;;;;11.40;11.40;;;;;-143.57;100.00;65101.44;5078702;27;45413;-52
2022/06/18 05:43:06;;;;;;;;;13.00;11.75;;;;;-143.57;100.00;65101.44;5078925;28;45373;-46
2022/06/18 05:45:32;;;;;;;;;11.25;11.25;;;;;-143.57;100.00;65101.44;5078976;27;45419;-52
2022/06/18 05:47:57;;;;;;;;;12.75;12.75;;;;;-143.57;100.00;65101.44;5094201;27;46221;-55
2022/06/18 05:50:22;;;;;;;;;17.00;12.25;;;;;-143.57;100.00;65101.44;5060355;28;45354;-44
2022/06/18 05:52:48;;;;;;;;;14.00;14.00;;;;;-143.57;100.00;65101.44;5078100;27;45322;-44
2022/06/18 05:55:14;;;;;;;;;13.00;13.00;;;;;-143.57;100.00;65101.44;5079024;28;45317;-45
2022/06/18 05:57:50;;;;;;;;;10.50;10.00;;;;;-143.57;100.00;65101.44;5078313;27;46295;-48
2022/06/18 06:00:18;;;;;;;;;14.40;11.80;;;;;-143.57;100.00;65101.44;5078521;28;45341;-52
2022/06/18 06:02:43;;;;;;;;;12.40;12.40;;;;;-143.57;100.00;65101.44;5078106;27;45452;-45
2022/06/18 06:05:09;;;;;;;;;14.25;13.00;;;;;-143.57;100.00;65101.44;5078249;27;45448;-50
2022/06/18 06:07:34;;;;;;;;;16.75;11.00;;;;;-143.57;100.00;65101.44;5078215;28;46169;-45
2022/06/18 06:12:43;;;;;;;;;14.40;13.80;;;;;-143.57;100.00;65101.44;5078214;28;45272;-49
2022/06/18 06:15:10;;;;;;;;;10.50;10.50;;;;;-143.57;100.00;65101.44;5078324;28;45459;-53
2022/06/18 06:17:35;;;;;;;;;11.75;8.75;;;;;-143.57;100.00;65101.44;5077045;28;46909;-47
2022/06/18 06:20:11;;;;;;;;;10.00;10.00;;;;;-143.57;100.00;65101.44;5078232;28;45247;-49
2022/06/18 06:22:36;;;;;;;;;12.20;9.60;;;;;-143.57;100.00;65101.44;5078097;28;45264;-55
2022/06/18 06:25:03;;;;;;;;;12.00;10.25;;;;;-143.57;100.00;65101.44;5078396;28;45430;-52
2022/06/18 06:27:28;;;;;;;;;12.40;12.00;;;;;-143.57;100.00;65101.44;5077857;28;45298;-53
2022/06/18 06:29:54;;;;;;;;;14.00;11.00;;;;;-143.57;100.00;65101.44;5078133;28;45265;-51
2022/06/18 06:32:19;;;;;;;;;16.00;14.00;;;;;-143.57;100.00;65101.44;5077687;27;46124;-53
2022/06/18 06:34:44;;;;;;;;;12.00;12.00;;;;;-143.57;100.00;65101.44;5078062;28;45464;-51
2022/06/18 06:37:10;;;;;;;;;13.00;12.25;;;;;-143.57;100.00;65101.44;5078050;28;46070;-54
2022/06/18 06:39:36;;;;;;;;;14.25;11.25;;;;;-143.57;100.00;65101.44;5077826;28;45542;-52
2022/06/18 06:42:01;;;;;;;;;12.00;12.00;;;;;-143.57;100.00;65101.44;5077816;27;45479;-49
2022/06/18 06:44:27;;;;;;;;;12.50;11.50;;;;;-143.57;100.00;65101.44;5077925;28;45556;-54
2022/06/18 06:46:52;;;;;;;;;11.00;11.00;;;;;-143.57;100.00;65101.44;5077470;28;45324;-49
2022/06/18 06:49:17;;;;;;;;;11.50;11.00;;;;;-143.57;100.00;65101.44;5077655;27;45442;-52
2022/06/18 06:51:43;;;;;;;;;13.50;11.00;;;;;-143.57;100.00;65101.44;5077711;27;45689;-50
2022/06/18 06:54:09;;;;;;;;;13.50;12.25;;;;;-143.57;100.00;65101.44;5077843;28;45310;-51
2022/06/18 06:59:18;;;;;;;;;13.00;11.60;;;;;-143.57;100.00;65101.44;5077564;27;45383;-55
2022/06/18 07:01:45;;;;;;;;;11.25;11.25;;;;;-143.57;100.00;65101.44;5077423;28;45520;-51
2022/06/18 07:04:11;;;;;;;;;10.80;10.40;;;;;-143.57;100.00;65101.44;5077519;28;45491;-54
2022/06/18 07:06:37;;;;;;;;;10.00;8.80;;;;;-143.57;100.00;65101.44;5077361;27;45397;-55
2022/06/18 07:09:07;;;;;;;;;11.00;10.25;;;;;-143.57;100.00;65101.44;5077666;27;45219;-52
2022/06/18 07:11:33;;;;;;;;;10.20;10.20;;;;;-143.57;100.00;65101.44;5077372;27;45447;-51
2022/06/18 07:13:59;;;;;;;;;11.20;10.00;;;;;-143.57;100.00;65101.44;5077344;27;45386;-52
2022/06/18 07:16:25;;;;;;;;;12.00;10.80;;;;;-143.57;100.00;65101.44;5076375;28;46281;-50
2022/06/18 07:18:53;;;;;;;;;10.25;10.25;;;;;-143.57;100.00;65101.44;5075722;28;45406;-50
2022/06/18 07:21:19;;;;;;;;;12.40;11.40;;;;;-143.57;100.00;65101.44;5077199;27;45416;-53
2022/06/18 07:23:45;;;;;;;;;14.40;11.00;;;;;-143.57;100.00;65101.44;5077322;27;45194;-49
2022/06/18 07:26:16;;;;;;;;;10.75;9.00;;;;;-143.57;100.00;65101.44;5077238;28;45372;-54
2022/06/18 07:28:43;;;;;;;;;9.00;9.00;;;;;-143.57;100.00;65101.44;5077403;27;45332;-48
2022/06/18 07:31:14;;;;;;;;;12.40;12.20;;;;;-143.57;100.00;65101.44;5077276;27;45300;-49
2022/06/18 07:33:40;;;;;;;;;13.20;10.80;;;;;-143.57;100.00;65101.44;5077173;27;45501;-51
2022/06/18 07:36:06;;;;;;;;;13.00;12.75;;;;;-143.57;100.00;65101.44;5076808;28;46344;-51
2022/06/18 07:38:32;;;;;;;;;11.40;11.40;;;;;-143.57;100.00;65101.44;5076323;28;45296;-53
2022/06/18 07:40:57;;;;;;;;;10.25;9.75;;;;;-143.57;100.00;65101.44;5077017;28;45583;-55
2022/06/18 07:43:40;;;;;;;;;10.00;10.00;;;;;-143.57;100.00;65101.44;5077358;28;45306;-47
2022/06/18 07:46:08;;;;;;;;;9.80;9.80;;;;;-143.57;100.00;65101.44;5076785;28;47046;-50
2022/06/18 07:48:34;;;;;;;;;10.20;9.40;;;;;-143.57;100.00;65101.44;5076863;28;45411;-50
2022/06/18 07:51:00;;;;;;;;;7.40;7.40;;;;;-143.57;100.00;65101.44;5077070;28;45435;-54
2022/06/18 07:53:26;;;;;;;;;10.50;10.50;;;;;-143.57;100.00;65101.44;5077147;28;45399;-50
2022/06/18 07:55:54;;;;;;;;;12.00;10.20;;;;;-143.57;100.00;65101.44;5076628;27;46145;-49
2022/06/18 07:58:20;;;;;;;;;12.60;11.20;;;;;-143.57;100.00;65101.44;5058302;28;45481;-47
2022/06/18 08:00:46;;;;;;;;;9.00;8.00;;;;;-143.57;100.00;65101.44;5076854;27;45361;-46
2022/06/18 08:03:14;;;;;;;;;15.00;11.40;;;;;-143.57;100.00;65101.44;5076790;27;45366;-48
2022/06/18 08:05:39;;;;;;;;;10.60;10.60;;;;;-143.57;100.00;65101.44;5076358;28;45343;-45
2022/06/18 08:08:05;;;;;;;;;10.25;9.75;;;;;-143.57;100.00;65101.44;5076355;28;45374;-50
2022/06/18 08:10:34;;;;;;;;;15.20;13.60;;;;;-143.57;100.00;65101.44;5076751;27;45339;-50
2022/06/18 08:13:00;;;;;;;;;11.80;11.80;;;;;-143.57;100.00;65101.44;5076742;27;45362;-47
2022/06/18 08:15:25;;;;;;;;;10.50;10.50;;;;;-143.57;100.00;65101.44;5076141;28;46274;-47
2022/06/18 08:17:50;;;;;;;;;12.00;11.50;;;;;-143.57;100.00;65101.44;5076733;28;45771;-47
2022/06/18 08:20:16;;;;;;;;;13.25;10.00;;;;;-143.57;100.00;65101.44;5075884;27;45434;-47
2022/06/18 08:22:47;;;;;;;;;9.50;9.50;;;;;-143.57;100.00;65101.44;5076970;28;45437;-47
2022/06/18 08:25:14;;;;;;;;;10.80;10.80;;;;;-143.57;100.00;65101.44;5076388;28;47062;-49
2022/06/18 08:27:41;;;;;;;;;13.00;13.00;;;;;-143.57;100.00;65101.44;5078997;28;45456;-45
2022/06/18 08:30:07;;;;;;;;;12.00;11.40;;;;;-143.57;100.00;65101.44;5079947;27;45166;-47
2022/06/18 08:32:33;;;;;;;;;12.60;12.60;;;;;-143.57;100.00;65101.44;5079843;27;45556;-49
2022/06/18 08:34:58;;;;;;;;;10.75;10.75;;;;;-143.57;100.00;65101.44;5079290;27;46159;-47
2022/06/18 08:37:24;;;;;;;;;11.50;9.75;;;;;-143.57;100.00;65101.44;5079832;27;45276;-48
2022/06/18 08:39:50;;;;;;;;;12.25;11.75;;;;;-143.57;100.00;65101.44;5079633;27;45276;-46
2022/06/18 08:42:18;;;;;;;;;12.00;12.00;;;;;-143.57;100.00;65101.44;5080015;28;45427;-48
2022/06/18 08:45:04;;;;;;;;;12.80;12.00;;;;;-143.57;100.00;65101.44;5079090;27;46392;-49
2022/06/18 08:47:53;;;;;;;;;12.00;11.00;;;;;-143.57;100.00;65101.44;5079394;28;45407;-47
2022/06/18 08:50:56;;;;;;;;;10.00;10.00;;;;;-143.57;100.00;65101.44;5079515;28;45388;-46
2022/06/18 08:53:42;;;;;;;;;13.60;12.60;;;;;-143.57;100.00;65101.44;5079745;28;45366;-45
2022/06/18 08:56:33;;;;;;;;;12.60;12.60;;;;;-143.57;100.00;65101.44;5079285;28;45441;-47
2022/06/18 08:59:26;;;;;;;;;12.80;11.40;;;;;-143.57;100.00;65101.44;5079405;28;45362;-48
2022/06/18 09:02:01;;;;;;;;;11.60;11.40;;;;;-143.57;100.00;65101.44;5079522;28;45451;-48
2022/06/18 09:05:16;;;;;;;;;12.60;10.80;;;;;-143.57;100.00;65101.44;5079136;27;45612;-49
2022/06/18 09:08:20;;;;;;;;;13.40;11.60;;;;;-143.57;100.00;65101.44;5079071;28;46161;-49
2022/06/18 09:10:51;;;;;;;;;13.00;13.00;;;;;-143.57;100.00;65101.44;5016325;28;45454;-50
2022/06/18 09:13:25;;;;;;;;;14.20;12.20;;;;;-143.57;100.00;65101.44;5016724;28;45455;-50
2022/06/18 09:15:56;;;;;;;;;13.20;13.20;;;;;-143.57;100.00;65101.44;5016854;28;45317;-48
2022/06/18 09:18:29;;;;;;;;;17.40;14.00;;;;;-143.57;100.00;65101.44;5016304;28;45456;-52
2022/06/18 09:20:58;;;;;;;;;13.60;13.60;;;;;-143.57;100.00;65101.44;5015795;28;45499;-51
2022/06/18 09:23:29;;;;;;;;;9.80;9.80;;;;;-143.57;100.00;65101.44;5016694;28;45329;-46
2022/06/18 09:25:58;;;;;;;;;12.40;12.40;;;;;-143.57;100.00;65101.44;5016653;28;45585;-49
2022/06/18 09:28:29;;;;;;;;;10.00;9.60;;;;;-143.57;100.00;65101.44;5016149;28;46201;-53
2022/06/18 09:31:04;;;;;;;;;10.80;10.80;;;;;-143.57;100.00;65101.44;5016437;28;45396;-48
2022/06/18 09:33:54;;;;;;;;;16.60;14.80;;;;;-143.57;100.00;65101.44;5016510;28;45423;-55
2022/06/18 09:36:24;;;;;;;;;11.60;11.60;;;;;-143.57;100.00;65101.44;5016430;28;45282;-52
2022/06/18 09:38:57;;;;;;;;;13.00;13.00;;;;;-143.57;100.00;65101.44;5015189;28;45491;-53
2022/06/18 09:41:27;;;;;;;;;10.80;10.80;;;;;-143.57;100.00;65101.44;5015944;28;45290;-48
2022/06/18 09:44:07;;;;;;;;;11.00;11.00;;;;;-143.57;100.00;65101.44;5016323;28;45498;-54
2022/06/18 09:46:41;;;;;;;;;14.00;10.60;;;;;-143.57;100.00;65101.44;5035302;27;45358;-50
2022/06/18 09:49:07;;;;;;;;;9.80;9.20;;;;;-143.57;100.00;65101.44;5078472;28;45567;-49
2022/06/18 09:52:11;;;;;;;;;10.25;9.25;;;;;-143.57;100.00;65101.44;5078497;27;45466;-54
2022/06/18 09:54:49;;;;;;;;;8.20;7.40;;;;;-143.57;100.00;65101.44;5016004;28;45369;-47
2022/06/18 09:57:18;;;;;;;;;9.80;9.80;;;;;-143.57;100.00;65101.44;5016132;28;45369;-49
2022/06/18 09:59:52;;;;;;;;;9.40;9.40;;;;;-143.57;100.00;65101.44;5016025;28;46563;-46
2022/06/18 10:02:23;;;;;;;;;9.00;9.00;;;;;-143.57;100.00;65101.44;5015629;28;45720;-51
2022/06/18 10:07:41;;;;;;;;;11.00;9.00;;;;;-143.57;100.00;65101.44;5024303;28;45446;-46
2022/06/18 10:10:09;;;;;;;;;14.00;12.40;;;;;-143.57;100.00;65101.44;5045314;28;46201;-44
2022/06/18 10:12:42;;;;;;;;;13.20;11.00;;;;;-143.57;100.00;65101.44;5037896;28;45362;-49
2022/06/18 10:15:10;;;;;;;;;10.00;8.80;;;;;-143.57;100.00;65101.44;5035634;28;45364;-47
2022/06/18 10:17:41;;;;;;;;;11.80;9.00;;;;;-143.57;100.00;65101.44;5035890;28;45433;-48
2022/06/18 10:20:10;;;;;;;;;9.00;7.40;;;;;-143.57;100.00;65101.44;5035429;28;46565;-47
2022/06/18 10:22:55;;;;;;;;;8.80;8.80;;;;;-143.57;100.00;65101.44;5035454;28;45474;-51
2022/06/18 10:25:48;;;;;;;;;10.20;10.20;;;;;-143.57;100.00;65101.44;5035539;28;45385;-48
2022/06/18 10:28:16;;;;;;;;;9.20;9.00;;;;;-143.57;100.00;65101.44;5035870;28;45414;-49
2022/06/18 10:30:48;;;;;;;;;10.00;10.00;;;;;-143.57;100.00;65101.44;5049251;28;46164;-46
2022/06/18 10:33:32;;;;;;;;;11.80;10.20;;;;;-143.57;100.00;65101.44;5078192;27;45437;-47
2022/06/18 10:36:22;;;;;;;;;11.00;10.60;;;;;-143.57;100.00;65101.44;5077777;27;45455;-48
2022/06/18 10:39:19;;;;;;;;;13.60;11.60;;;;;-143.57;100.00;65101.44;5078181;27;45371;-46
2022/06/18 10:41:50;;;;;;;;;13.00;10.80;;;;;-143.57;100.00;65101.44;5059507;28;47147;-50
2022/06/18 10:44:35;;;;;;;;;9.60;9.60;;;;;-143.57;100.00;65101.44;5077702;27;45468;-47
2022/06/18 10:47:05;;;;;;;;;13.80;13.00;;;;;-143.57;100.00;65101.44;5097458;27;45232;-48
2022/06/18 10:49:31;;;;;;;;;14.40;13.20;;;;;-143.57;100.00;65101.44;5096090;27;45910;-54
2022/06/18 10:51:58;;;;;;;;;12.40;12.00;;;;;-143.57;100.00;65101.44;5096502;27;45577;-53
2022/06/18 10:54:33;;;;;;;;;11.80;9.60;;;;;-143.57;100.00;65101.44;5097541;27;45259;-48
2022/06/18 10:57:00;;;;;;;;;8.40;8.40;;;;;-143.57;100.00;65101.44;5097713;27;45338;-49
2022/06/18 10:59:38;;;;;;;;;7.60;6.00;;;;;-143.57;100.00;65101.44;5097935;27;45208;-46
2022/06/18 11:02:11;;;;;;;;;9.20;9.20;;;;;-143.57;100.00;65101.44;5097923;27;45525;-49
2022/06/18 11:04:38;;;;;;;;;8.80;8.40;;;;;-143.57;100.00;65101.44;5096561;27;45382;-50
2022/06/18 11:07:07;;;;;;;;;9.00;9.00;;;;;-143.57;100.00;65101.44;5097810;27;45430;-47
2022/06/18 11:09:54;;;;;;;;;9.80;9.40;;;;;-143.57;100.00;65101.44;5097801;27;45514;-53
2022/06/18 11:12:27;;;;;;;;;7.20;7.20;;;;;-143.57;100.00;65101.44;5097356;27;48078;-53
2022/06/18 11:14:53;;;;;;;;;9.00;9.00;;;;;-143.57;100.00;65101.44;5097624;27;45240;-56
2022/06/18 11:17:36;;;;;;;;;14.80;13.20;;;;;-143.57;100.00;65101.44;5098036;27;45228;-49
2022/06/18 11:20:23;;;;;;;;;11.00;9.20;;;;;-143.57;100.00;65101.44;5098174;27;45264;-45
2022/06/18 11:23:16;;;;;;;;;9.20;6.80;;;;;-143.57;100.00;65101.44;5097514;27;46327;-52
2022/06/18 11:25:41;;;;;;;;;8.80;8.80;;;;;-143.57;100.00;65101.44;5097639;27;45391;-50